Time,TemperatureF,DewpointF,PressureIn,WindDirection,WindDirectionDegrees,WindSpeedMPH,WindSpeedGustMPH,Humidity,HourlyPrecipIn,Conditions,Clouds,dailyrainin,SolarRadiationWatts/m^2,SoftwareType,DateUTC
2013-08-28 00:03:00,71.8,65.3,30.05,NNE,14,6.5,11.5,80,0.00,CLR,,0.00,0.0,WeatherDisplay:10.37,2013-08-28 10:03:00,
2013-08-28 00:08:00,71.8,65.3,30.04,East,84,3.5,5.8,80,0.00,CLR,,0.00,0.0,WeatherDisplay:10.37,2013-08-28 10:08:00,
2013-08-28 00:13:00,71.7,65.2,30.04,NNE,26,4.1,4.1,80,0.00,CLR,,0.00,0.0,WeatherDisplay:10.37,2013-08-28 10:13:00,
2013-08-28 00:18:00,71.6,65.1,30.04,North,5,3.2,8.1,80,0.00,CLR,,0.00,0.0,WeatherDisplay:10.37,2013-08-28 10:18:00,
2013-08-28 00:23:00,71.4,65.3,30.04,North,5,2.1,6.9,81,0.00,CLR,,0.00,0.0,WeatherDisplay:10.37,2013-08-28 10:23:00,
2013-08-28 00:28:00,71.3,65.2,30.03,NNE,15,2.9,10.4,81,0.00,CLR,,0.00,0.0,WeatherDisplay:10.37,2013-08-28 10:28:00,
2013-08-28 00:36:00,71.2,65.1,30.03,NNW,348,2.8,4.6,81,0.00,CLR,,0.00,0.0,WeatherDisplay:10.37,2013-08-28 10:36:00,
2013-08-28 00:41:00,71.2,65.1,30.03,ENE,69,2.7,8.1,81,0.00,CLR,,0.00,0.0,WeatherDisplay:10.37,2013-08-28 10:41:00,
2013-08-28 00:46:00,71.1,65.0,30.03,North,360,3.5,9.0,81,0.00,CLR,,0.00,0.0,WeatherDisplay:10.37,2013-08-28 10:46:00,
2013-08-28 00:51:00,71.0,64.9,30.03,NE,55,3.0,6.9,81,0.00,CLR,,0.00,0.0,WeatherDisplay:10.37,2013-08-28 10:51:00,
2013-08-28 00:56:00,71.0,65.2,30.03,NNW,343,3.9,4.6,82,0.00,CLR,,0.00,0.0,WeatherDisplay:10.37,2013-08-28 10:56:00,
2013-08-28 01:01:00,71.0,65.2,30.02,NE,38,3.3,6.9,82,0.00,CLR,,0.00,0.0,WeatherDisplay:10.37,2013-08-28 11:01:00,
2013-08-28 01:06:00,71.0,65.2,30.02,North,355,4.9,9.0,82,0.00,CLR,,0.00,0.0,WeatherDisplay:10.37,2013-08-28 11:06:00,
2013-08-28 01:48:00,70.9,65.1,30.02,NNE,28,1.7,4.6,82,0.00,CLR,,0.00,0.0,WeatherDisplay:10.37,2013-08-28 11:48:00,
2013-08-28 01:53:00,70.8,65.0,30.01,North,350,3.3,4.6,82,0.00,CLR,,0.00,0.0,WeatherDisplay:10.37,2013-08-28 11:53:00,
2013-08-28 01:58:00,70.7,64.9,30.01,NNE,28,2.6,4.0,82,0.00,CLR,,0.00,0.0,WeatherDisplay:10.37,2013-08-28 11:58:00,
2013-08-28 02:03:00,70.6,64.8,30.01,North,5,2.3,4.0,82,0.00,CLR,,0.00,0.0,WeatherDisplay:10.37,2013-08-28 12:03:00,
2013-08-28 02:08:00,70.5,64.7,30.01,NNE,19,1.5,4.6,82,0.00,CLR,,0.00,0.0,WeatherDisplay:10.37,2013-08-28 12:08:00,
2013-08-28 02:13:00,70.4,64.6,30.01,North,5,3.1,5.0,82,0.00,CLR,,0.00,0.0,WeatherDisplay:10.37,2013-08-28 12:13:00,
2013-08-28 02:18:00,70.4,64.6,30.01,North,5,2.5,4.6,82,0.00,CLR,,0.00,0.0,WeatherDisplay:10.37,2013-08-28 12:18:00,
2013-08-28 02:23:00,70.3,64.5,30.01,North,9,1.8,6.9,82,0.00,CLR,,0.00,0.0,WeatherDisplay:10.37,2013-08-28 12:23:00,
2013-08-28 02:28:00,70.3,64.5,30.01,North,5,0.6,3.0,82,0.00,CLR,,0.00,0.0,WeatherDisplay:10.37,2013-08-28 12:28:00,
2013-08-28 02:33:00,70.3,64.5,30.00,NNE,21,2.8,7.0,82,0.00,CLR,,0.00,0.0,WeatherDisplay:10.37,2013-08-28 12:33:00,
2013-08-28 02:38:00,70.3,64.5,30.00,NNE,30,0.6,2.3,82,0.00,CLR,,0.00,0.0,WeatherDisplay:10.37,2013-08-28 12:38:00,
2013-08-28 02:43:00,70.2,64.4,30.00,North,355,2.4,3.5,82,0.00,CLR,,0.00,0.0,WeatherDisplay:10.37,2013-08-28 12:43:00,
2013-08-28 02:51:00,70.2,64.4,30.00,NNE,19,2.8,7.0,82,0.00,CLR,,0.00,0.0,WeatherDisplay:10.37,2013-08-28 12:51:00,
2013-08-28 02:56:00,70.2,64.4,30.00,NNE,14,1.2,5.8,82,0.00,CLR,,0.00,0.0,WeatherDisplay:10.37,2013-08-28 12:56:00,
2013-08-28 03:01:00,70.2,64.4,30.00,North,9,3.4,5.8,82,0.00,CLR,,0.00,0.0,WeatherDisplay:10.37,2013-08-28 13:01:00,
2013-08-28 03:06:00,70.2,64.4,30.00,North,351,2.3,10.0,82,0.00,CLR,,0.00,0.0,WeatherDisplay:10.37,2013-08-28 13:06:00,
2013-08-28 03:11:00,70.2,64.4,30.00,NNE,24,3.5,5.8,82,0.00,CLR,,0.00,0.0,WeatherDisplay:10.37,2013-08-28 13:11:00,
2013-08-28 03:16:00,70.2,64.4,30.00,North,5,4.8,8.1,82,0.00,CLR,,0.00,0.0,WeatherDisplay:10.37,2013-08-28 13:16:00,
2013-08-28 03:21:00,70.2,64.4,30.00,NW,312,4.1,5.8,82,0.00,CLR,,0.00,0.0,WeatherDisplay:10.37,2013-08-28 13:21:00,
2013-08-28 03:26:00,70.2,64.1,30.00,NNW,338,3.9,8.1,81,0.00,CLR,,0.00,0.0,WeatherDisplay:10.37,2013-08-28 13:26:00,
2013-08-28 03:31:00,70.2,64.1,30.00,NE,36,4.0,6.9,81,0.00,CLR,,0.00,0.0,WeatherDisplay:10.37,2013-08-28 13:31:00,
2013-08-28 03:36:00,70.2,64.1,29.99,NNE,29,2.5,5.0,81,0.00,CLR,,0.00,0.0,WeatherDisplay:10.37,2013-08-28 13:36:00,
2013-08-28 03:41:00,70.2,64.1,29.99,NNE,22,2.5,4.6,81,0.00,CLR,,0.00,0.0,WeatherDisplay:10.37,2013-08-28 13:41:00,
2013-08-28 03:46:00,70.2,63.7,29.99,NE,42,2.9,5.8,80,0.00,CLR,,0.00,0.0,WeatherDisplay:10.37,2013-08-28 13:46:00,
2013-08-28 03:51:00,70.3,63.8,29.99,NNW,348,2.4,4.6,80,0.00,CLR,,0.00,0.0,WeatherDisplay:10.37,2013-08-28 13:51:00,
2013-08-28 03:56:00,70.3,63.8,29.99,North,5,3.2,4.6,80,0.00,CLR,,0.00,0.0,WeatherDisplay:10.37,2013-08-28 13:56:00,
2013-08-28 04:01:00,70.3,63.8,29.99,NE,42,3.0,4.6,80,0.00,CLR,,0.00,0.0,WeatherDisplay:10.37,2013-08-28 14:01:00,
2013-08-28 04:06:00,70.3,63.8,29.99,North,360,3.0,6.9,80,0.00,CLR,,0.00,0.0,WeatherDisplay:10.37,2013-08-28 14:06:00,
2013-08-28 04:11:00,70.3,63.8,29.99,North,360,2.7,5.8,80,0.00,CLR,,0.00,0.0,WeatherDisplay:10.37,2013-08-28 14:11:00,
2013-08-28 04:16:00,70.3,63.5,29.99,NNW,336,1.3,3.5,79,0.00,CLR,,0.00,0.0,WeatherDisplay:10.37,2013-08-28 14:16:00,
2013-08-28 04:21:00,70.3,63.5,29.99,NNW,340,3.2,5.0,79,0.00,CLR,,0.00,0.0,WeatherDisplay:10.37,2013-08-28 14:21:00,
2013-08-28 04:26:00,70.3,63.5,29.99,North,350,1.9,3.5,79,0.00,CLR,,0.00,0.0,WeatherDisplay:10.37,2013-08-28 14:26:00,
2013-08-28 04:31:00,70.3,63.5,29.99,NE,49,1.0,2.3,79,0.00,CLR,,0.00,0.0,WeatherDisplay:10.37,2013-08-28 14:31:00,
2013-08-28 04:36:00,70.2,63.0,29.99,NNE,15,0.9,3.5,78,0.00,CLR,,0.00,0.0,WeatherDisplay:10.37,2013-08-28 14:36:00,
2013-08-28 04:41:00,70.2,63.0,29.99,NNE,30,0.1,1.2,78,0.00,CLR,,0.00,0.0,WeatherDisplay:10.37,2013-08-28 14:41:00,
2013-08-28 04:46:00,70.1,62.9,29.99,NNW,333,0.0,3.5,78,0.00,CLR,,0.00,0.0,WeatherDisplay:10.37,2013-08-28 14:46:00,
2013-08-28 04:51:00,70.0,62.5,29.99,North,355,0.4,1.2,77,0.00,CLR,,0.00,0.0,WeatherDisplay:10.37,2013-08-28 14:51:00,
2013-08-28 04:56:00,69.9,62.4,29.99,NNW,341,0.8,1.2,77,0.00,CLR,,0.00,0.0,WeatherDisplay:10.37,2013-08-28 14:56:00,
2013-08-28 05:01:00,69.8,62.3,29.99,NNW,341,0.9,3.5,77,0.00,CLR,,0.00,0.0,WeatherDisplay:10.37,2013-08-28 15:01:00,
2013-08-28 05:06:00,69.7,62.2,29.99,NNE,13,1.2,3.0,77,0.00,CLR,,0.00,0.0,WeatherDisplay:10.37,2013-08-28 15:06:00,
2013-08-28 05:11:00,69.6,62.1,29.99,NNW,339,0.4,2.3,77,0.00,CLR,,0.00,0.0,WeatherDisplay:10.37,2013-08-28 15:11:00,
2013-08-28 05:16:00,69.5,62.0,29.99,NNW,340,0.0,1.2,77,0.00,CLR,,0.00,0.0,WeatherDisplay:10.37,2013-08-28 15:16:00,
2013-08-28 05:21:00,69.5,62.0,29.99,North,355,0.3,2.3,77,0.00,CLR,,0.00,0.0,WeatherDisplay:10.37,2013-08-28 15:21:00,
2013-08-28 05:26:00,69.4,61.9,29.99,NNW,346,0.7,4.0,77,0.00,CLR,,0.00,0.0,WeatherDisplay:10.37,2013-08-28 15:26:00,
2013-08-28 05:31:00,69.5,62.0,29.99,NE,36,0.5,3.5,77,0.00,CLR,,0.00,0.0,WeatherDisplay:10.37,2013-08-28 15:31:00,
2013-08-28 05:36:00,69.5,62.0,29.99,North,355,0.9,3.5,77,0.00,CLR,,0.00,0.0,WeatherDisplay:10.37,2013-08-28 15:36:00,
2013-08-28 05:41:00,69.5,62.0,29.99,NNE,21,1.1,3.5,77,0.00,CLR,,0.00,0.0,WeatherDisplay:10.37,2013-08-28 15:41:00,
2013-08-28 05:46:00,69.5,62.0,30.00,NNE,26,0.5,2.3,77,0.00,CLR,,0.00,0.0,WeatherDisplay:10.37,2013-08-28 15:46:00,
2013-08-28 05:51:00,69.7,62.2,30.00,NNE,25,2.2,4.6,77,0.00,CLR,,0.00,0.0,WeatherDisplay:10.37,2013-08-28 15:51:00,
2013-08-28 05:56:00,69.8,62.3,30.00,NNE,15,1.6,4.0,77,0.00,CLR,,0.00,0.0,WeatherDisplay:10.37,2013-08-28 15:56:00,
2013-08-28 06:01:00,69.9,62.4,30.00,NNE,22,2.8,9.2,77,0.00,CLR,,0.00,0.0,WeatherDisplay:10.37,2013-08-28 16:01:00,
2013-08-28 06:06:00,70.1,62.6,30.00,NNE,23,0.7,2.3,77,0.00,CLR,,0.00,0.0,WeatherDisplay:10.37,2013-08-28 16:06:00,
2013-08-28 06:11:00,70.2,62.6,30.00,NNE,16,1.3,3.5,77,0.00,CLR,,0.00,0.0,WeatherDisplay:10.37,2013-08-28 16:11:00,
2013-08-28 06:16:00,70.2,62.6,30.00,NNE,21,1.3,2.3,77,0.00,CLR,,0.00,5.0,WeatherDisplay:10.37,2013-08-28 16:16:00,
2013-08-28 06:21:00,70.3,62.7,30.00,NNE,14,3.4,5.8,77,0.00,BKN,,0.00,7.0,WeatherDisplay:10.37,2013-08-28 16:21:00,
2013-08-28 06:26:00,70.4,62.5,30.00,North,355,2.3,8.0,76,0.00,BKN,,0.00,11.0,WeatherDisplay:10.37,2013-08-28 16:26:00,
2013-08-28 06:31:00,70.6,62.7,30.00,NNE,30,2.3,5.8,76,0.00,CLR,,0.00,12.0,WeatherDisplay:10.37,2013-08-28 16:31:00,
2013-08-28 06:36:00,70.6,62.7,30.00,North,360,2.8,6.9,76,0.00,CLR,,0.00,16.0,WeatherDisplay:10.37,2013-08-28 16:36:00,
2013-08-28 06:41:00,70.8,62.9,30.01,North,360,2.1,4.0,76,0.00,CLR,,0.00,18.0,WeatherDisplay:10.37,2013-08-28 16:41:00,
2013-08-28 06:46:00,70.9,63.0,30.01,NNE,20,0.7,2.3,76,0.00,CLR,,0.00,19.0,WeatherDisplay:10.37,2013-08-28 16:46:00,
2013-08-28 06:51:00,71.0,62.7,30.00,NNW,336,0.8,3.5,75,0.00,CLR,,0.00,21.0,WeatherDisplay:10.37,2013-08-28 16:51:00,
2013-08-28 06:56:00,71.0,62.7,30.00,North,360,2.2,3.5,75,0.00,CLR,,0.00,25.0,WeatherDisplay:10.37,2013-08-28 16:56:00,
2013-08-28 07:01:00,71.2,62.5,30.00,North,360,2.2,3.5,74,0.00,CLR,,0.00,100.0,WeatherDisplay:10.37,2013-08-28 17:01:00,
2013-08-28 07:06:00,71.3,62.6,30.00,North,360,1.9,3.5,74,0.00,CLR,,0.00,121.0,WeatherDisplay:10.37,2013-08-28 17:06:00,
2013-08-28 07:11:00,71.6,62.5,30.00,North,350,1.8,3.5,73,0.00,CLR,,0.00,144.0,WeatherDisplay:10.37,2013-08-28 17:11:00,
2013-08-28 07:16:00,72.1,62.6,30.00,NNW,334,1.1,2.3,72,0.00,CLR,,0.00,165.0,WeatherDisplay:10.37,2013-08-28 17:16:00,
2013-08-28 07:21:00,72.6,63.1,30.01,North,5,2.0,3.5,72,0.00,CLR,,0.00,188.0,WeatherDisplay:10.37,2013-08-28 17:21:00,
2013-08-28 07:26:00,73.1,62.7,30.01,NNE,23,0.4,2.3,70,0.00,CLR,,0.00,211.0,WeatherDisplay:10.37,2013-08-28 17:26:00,
2013-08-28 07:31:00,73.7,62.9,30.01,ENE,75,3.3,5.8,69,0.00,CLR,,0.00,230.0,WeatherDisplay:10.37,2013-08-28 17:31:00,
2013-08-28 07:36:00,74.3,63.1,30.01,NNE,30,2.5,4.6,68,0.00,CLR,,0.00,250.0,WeatherDisplay:10.37,2013-08-28 17:36:00,
2013-08-28 07:41:00,74.8,62.7,30.00,NNE,25,3.2,4.6,66,0.00,CLR,,0.00,269.0,WeatherDisplay:10.37,2013-08-28 17:41:00,
2013-08-28 07:46:00,75.4,62.8,30.01,NNW,346,1.9,3.5,65,0.00,CLR,,0.00,288.0,WeatherDisplay:10.37,2013-08-28 17:46:00,
2013-08-28 07:51:00,75.9,62.4,30.00,NE,36,2.0,3.5,63,0.00,CLR,,0.00,313.0,WeatherDisplay:10.37,2013-08-28 17:51:00,
2013-08-28 07:56:00,76.3,62.3,30.00,NNE,30,4.3,9.2,62,0.00,CLR,,0.00,334.0,WeatherDisplay:10.37,2013-08-28 17:56:00,
2013-08-28 08:01:00,76.7,62.2,30.00,NE,46,1.2,3.5,61,0.00,CLR,,0.00,357.0,WeatherDisplay:10.37,2013-08-28 18:01:00,
2013-08-28 08:06:00,77.1,63.1,30.01,NNW,338,3.0,4.6,62,0.00,CLR,,0.00,362.0,WeatherDisplay:10.37,2013-08-28 18:06:00,
2013-08-28 08:11:00,77.5,62.5,30.01,North,11,3.3,4.6,60,0.00,CLR,,0.00,381.0,WeatherDisplay:10.37,2013-08-28 18:11:00,
2013-08-28 08:16:00,77.7,62.7,30.01,NNE,25,1.4,3.5,60,0.00,CLR,,0.00,399.0,WeatherDisplay:10.37,2013-08-28 18:16:00,
2013-08-28 08:21:00,78.0,62.5,30.01,NNW,335,1.6,5.8,59,0.00,CLR,,0.00,415.0,WeatherDisplay:10.37,2013-08-28 18:21:00,
2013-08-28 08:26:00,78.4,62.9,30.01,NE,45,1.4,4.0,59,0.00,CLR,,0.00,434.0,WeatherDisplay:10.37,2013-08-28 18:26:00,
2013-08-28 08:31:00,78.8,63.3,30.01,NE,43,1.9,4.0,59,0.00,CLR,,0.00,454.0,WeatherDisplay:10.37,2013-08-28 18:31:00,
2013-08-28 08:36:00,79.2,64.6,30.00,NNW,344,2.6,4.6,61,0.00,CLR,,0.00,471.0,WeatherDisplay:10.37,2013-08-28 18:36:00,
2013-08-28 08:41:00,79.5,64.4,30.00,ENE,69,0.4,1.2,60,0.00,CLR,,0.00,489.0,WeatherDisplay:10.37,2013-08-28 18:41:00,
2013-08-28 08:46:00,79.8,63.2,30.01,NE,52,0.3,1.2,57,0.00,CLR,,0.00,506.0,WeatherDisplay:10.37,2013-08-28 18:46:00,
2013-08-28 08:51:00,80.3,64.7,30.00,ENE,63,1.6,3.5,59,0.00,CLR,,0.00,526.0,WeatherDisplay:10.37,2013-08-28 18:51:00,
2013-08-28 08:56:00,80.4,63.8,30.00,ENE,62,1.1,2.3,57,0.00,CLR,,0.00,540.0,WeatherDisplay:10.37,2013-08-28 18:56:00,
2013-08-28 09:01:00,80.5,64.4,30.01,East,98,2.2,3.5,58,0.00,CLR,,0.00,557.0,WeatherDisplay:10.37,2013-08-28 19:01:00,
2013-08-28 09:06:00,80.6,64.9,30.00,NE,44,1.1,2.3,59,0.00,CLR,,0.00,571.0,WeatherDisplay:10.37,2013-08-28 19:06:00,
2013-08-28 09:11:00,80.7,63.0,30.00,NE,52,1.9,3.5,55,0.00,CLR,,0.00,589.0,WeatherDisplay:10.37,2013-08-28 19:11:00,
2013-08-28 09:16:00,80.8,63.6,30.00,NE,55,3.4,5.8,56,0.00,CLR,,0.00,606.0,WeatherDisplay:10.37,2013-08-28 19:16:00,
2013-08-28 09:21:00,80.8,63.6,30.00,NNE,33,3.7,5.8,56,0.00,CLR,,0.00,622.0,WeatherDisplay:10.37,2013-08-28 19:21:00,
2013-08-28 09:26:00,80.7,63.5,30.00,ENE,72,5.5,10.4,56,0.00,CLR,,0.00,638.0,WeatherDisplay:10.37,2013-08-28 19:26:00,
2013-08-28 09:31:00,80.6,61.9,30.00,ENE,69,2.7,6.0,53,0.00,CLR,,0.00,650.0,WeatherDisplay:10.37,2013-08-28 19:31:00,
2013-08-28 09:36:00,80.7,63.5,30.00,North,5,4.3,8.1,56,0.00,CLR,,0.00,666.0,WeatherDisplay:10.37,2013-08-28 19:36:00,
2013-08-28 09:41:00,80.9,62.7,30.00,NE,48,2.3,5.8,54,0.00,CLR,,0.00,682.0,WeatherDisplay:10.37,2013-08-28 19:41:00,
2013-08-28 09:46:00,81.2,64.5,30.00,NE,55,2.8,3.5,57,0.00,CLR,,0.00,698.0,WeatherDisplay:10.37,2013-08-28 19:46:00,
2013-08-28 09:51:00,81.4,64.7,30.00,NE,40,3.4,8.0,57,0.00,CLR,,0.00,714.0,WeatherDisplay:10.37,2013-08-28 19:51:00,
2013-08-28 09:56:00,81.6,64.4,30.00,NNE,19,6.2,10.4,56,0.00,CLR,,0.00,726.0,WeatherDisplay:10.37,2013-08-28 19:56:00,
2013-08-28 10:01:00,81.4,64.2,30.00,ENE,59,4.5,5.8,56,0.00,CLR,,0.00,738.0,WeatherDisplay:10.37,2013-08-28 20:01:00,
2013-08-28 10:06:00,81.3,63.6,30.00,ENE,59,3.5,5.8,55,0.00,CLR,,0.00,747.0,WeatherDisplay:10.37,2013-08-28 20:06:00,
2013-08-28 10:11:00,81.6,63.9,30.00,NNE,27,4.9,11.5,55,0.00,CLR,,0.00,759.0,WeatherDisplay:10.37,2013-08-28 20:11:00,
2013-08-28 10:16:00,81.7,63.4,30.00,ENE,61,4.2,6.9,54,0.00,CLR,,0.00,791.0,WeatherDisplay:10.37,2013-08-28 20:16:00,
2013-08-28 10:21:00,82.1,62.7,30.00,East,94,4.2,6.9,52,0.00,CLR,,0.00,761.0,WeatherDisplay:10.37,2013-08-28 20:21:00,
2013-08-28 10:26:00,82.3,64.0,29.99,NNE,26,3.3,4.6,54,0.00,CLR,,0.00,733.0,WeatherDisplay:10.37,2013-08-28 20:26:00,
2013-08-28 10:31:00,82.5,63.1,29.99,NE,44,1.9,3.5,52,0.00,CLR,,0.00,721.0,WeatherDisplay:10.37,2013-08-28 20:31:00,
2013-08-28 10:36:00,82.9,64.0,29.99,ENE,66,2.8,4.6,53,0.00,CLR,,0.00,844.0,WeatherDisplay:10.37,2013-08-28 20:36:00,
2013-08-28 10:41:00,83.0,62.4,29.99,NE,51,1.4,3.5,50,0.00,CLR,,0.00,840.0,WeatherDisplay:10.37,2013-08-28 20:41:00,
2013-08-28 10:46:00,83.4,64.5,29.99,ENE,73,2.9,5.8,53,0.00,CLR,,0.00,865.0,WeatherDisplay:10.37,2013-08-28 20:46:00,
2013-08-28 10:51:00,83.6,64.7,29.98,East,97,1.7,3.5,53,0.00,CLR,,0.00,877.0,WeatherDisplay:10.37,2013-08-28 20:51:00,
2013-08-28 10:56:00,83.8,64.3,29.98,North,5,1.2,3.5,52,0.00,CLR,,0.00,884.0,WeatherDisplay:10.37,2013-08-28 20:56:00,
2013-08-28 11:01:00,83.9,64.9,29.98,South,171,1.1,4.0,53,0.00,CLR,,0.00,786.0,WeatherDisplay:10.37,2013-08-28 21:01:00,
2013-08-28 11:06:00,84.2,64.7,29.98,ESE,117,2.0,3.5,52,0.00,CLR,,0.00,912.0,WeatherDisplay:10.37,2013-08-28 21:06:00,
2013-08-28 11:11:00,84.5,66.0,29.99,SE,125,0.1,1.2,54,0.00,CLR,,0.00,928.0,WeatherDisplay:10.37,2013-08-28 21:11:00,
2013-08-28 11:16:00,84.7,64.0,29.98,SW,226,5.0,6.9,50,0.00,CLR,,0.00,918.0,WeatherDisplay:10.37,2013-08-28 21:16:00,
2013-08-28 11:21:00,84.7,64.6,29.98,SSW,211,4.8,8.1,51,0.00,CLR,,0.00,932.0,WeatherDisplay:10.37,2013-08-28 21:21:00,
2013-08-28 11:26:00,84.5,64.9,29.98,SW,224,3.9,5.8,52,0.00,CLR,,0.00,921.0,WeatherDisplay:10.37,2013-08-28 21:26:00,
2013-08-28 11:31:00,84.3,64.8,29.98,SSW,209,0.8,2.3,52,0.00,CLR,,0.00,953.0,WeatherDisplay:10.37,2013-08-28 21:31:00,
2013-08-28 11:36:00,84.6,64.5,29.97,South,187,3.3,5.8,51,0.00,CLR,,0.00,977.0,WeatherDisplay:10.37,2013-08-28 21:36:00,
2013-08-28 11:41:00,84.7,64.6,29.97,SW,220,5.2,9.2,51,0.00,CLR,,0.00,983.0,WeatherDisplay:10.37,2013-08-28 21:41:00,
2013-08-28 11:46:00,84.5,63.8,29.97,SW,224,4.1,10.4,50,0.00,CLR,,0.00,974.0,WeatherDisplay:10.37,2013-08-28 21:46:00,
2013-08-28 11:51:00,84.4,64.3,29.96,SSW,207,6.8,11.5,51,0.00,CLR,,0.00,991.0,WeatherDisplay:10.37,2013-08-28 21:51:00,
2013-08-28 11:56:00,84.0,63.9,29.97,SW,234,4.9,9.2,51,0.00,CLR,,0.00,993.0,WeatherDisplay:10.37,2013-08-28 21:56:00,
2013-08-28 12:01:00,83.9,64.4,29.96,West,267,2.8,3.5,52,0.00,CLR,,0.00,1025.0,WeatherDisplay:10.37,2013-08-28 22:01:00,
2013-08-28 12:06:00,84.3,65.3,29.96,SW,233,4.4,9.2,53,0.00,CLR,,0.00,1048.0,WeatherDisplay:10.37,2013-08-28 22:06:00,
2013-08-28 12:11:00,84.7,65.7,29.95,SW,232,3.9,14.0,53,0.00,CLR,,0.00,1058.0,WeatherDisplay:10.37,2013-08-28 22:11:00,
2013-08-28 12:16:00,84.6,65.0,29.95,SSW,193,4.0,8.1,52,0.00,CLR,,0.00,1014.0,WeatherDisplay:10.37,2013-08-28 22:16:00,
2013-08-28 12:21:00,84.6,65.0,29.95,SSW,193,6.0,9.2,52,0.00,CLR,,0.00,1005.0,WeatherDisplay:10.37,2013-08-28 22:21:00,
2013-08-28 12:26:00,84.5,64.4,29.96,SSW,202,6.3,11.5,51,0.00,CLR,,0.00,995.0,WeatherDisplay:10.37,2013-08-28 22:26:00,
2013-08-28 12:31:00,84.3,64.8,29.95,South,188,3.2,6.9,52,0.00,CLR,,0.00,1004.0,WeatherDisplay:10.37,2013-08-28 22:31:00,
2013-08-28 12:36:00,84.3,64.8,29.96,SSW,201,2.2,3.5,52,0.00,CLR,,0.00,1009.0,WeatherDisplay:10.37,2013-08-28 22:36:00,
2013-08-28 12:41:00,84.6,63.9,29.95,SSW,200,2.7,9.2,50,0.00,CLR,,0.00,1123.0,WeatherDisplay:10.37,2013-08-28 22:41:00,
2013-08-28 12:46:00,84.4,64.3,29.95,SW,229,5.2,11.5,51,0.00,CLR,,0.00,1123.0,WeatherDisplay:10.37,2013-08-28 22:46:00,
2013-08-28 12:51:00,83.7,64.2,29.95,SW,229,4.4,8.0,52,0.00,BKN,,0.00,341.0,WeatherDisplay:10.37,2013-08-28 22:51:00,
2013-08-28 12:56:00,83.4,65.0,29.95,South,188,2.6,11.5,54,0.00,CLR,,0.00,1079.0,WeatherDisplay:10.37,2013-08-28 22:56:00,
2013-08-28 13:01:00,83.6,64.7,29.94,SW,233,4.5,13.0,53,0.00,CLR,,0.00,1079.0,WeatherDisplay:10.37,2013-08-28 23:01:00,
2013-08-28 13:06:00,83.8,64.3,29.94,SW,222,5.9,8.1,52,0.00,CLR,,0.00,1069.0,WeatherDisplay:10.37,2013-08-28 23:06:00,
2013-08-28 13:11:00,84.5,64.4,29.94,SW,219,7.4,11.5,51,0.00,CLR,,0.00,1093.0,WeatherDisplay:10.37,2013-08-28 23:11:00,
2013-08-28 13:16:00,84.5,64.4,29.94,SW,217,4.8,11.5,51,0.00,BKN,,0.00,424.0,WeatherDisplay:10.37,2013-08-28 23:16:00,
2013-08-28 13:21:00,84.0,65.0,29.94,WSW,244,5.0,9.2,53,0.00,BKN,,0.00,448.0,WeatherDisplay:10.37,2013-08-28 23:21:00,
2013-08-28 13:26:00,83.8,64.8,29.94,SW,228,3.6,4.6,53,0.00,BKN,,0.00,1148.0,WeatherDisplay:10.37,2013-08-28 23:26:00,
2013-08-28 13:31:00,83.8,63.7,29.93,SSW,205,6.4,9.2,51,0.00,CLR,,0.00,1095.0,WeatherDisplay:10.37,2013-08-28 23:31:00,
2013-08-28 13:36:00,83.9,64.4,29.93,South,188,4.8,9.2,52,0.00,CLR,,0.00,1111.0,WeatherDisplay:10.37,2013-08-28 23:36:00,
2013-08-28 13:41:00,83.9,64.9,29.93,South,189,5.7,9.2,53,0.00,CLR,,0.00,1071.0,WeatherDisplay:10.37,2013-08-28 23:41:00,
2013-08-28 13:46:00,84.1,64.6,29.93,SSW,192,3.5,8.1,52,0.00,CLR,,0.00,1005.0,WeatherDisplay:10.37,2013-08-28 23:46:00,
2013-08-28 13:51:00,84.3,65.8,29.93,SSW,193,4.3,5.8,54,0.00,CLR,,0.00,1162.0,WeatherDisplay:10.37,2013-08-28 23:51:00,
2013-08-28 13:56:00,84.6,65.6,29.93,SSW,210,5.5,11.5,53,0.00,CLR,,0.00,1102.0,WeatherDisplay:10.37,2013-08-28 23:56:00,
2013-08-28 14:01:00,84.5,64.9,29.93,West,259,2.5,3.5,52,0.00,SCT,,0.00,552.0,WeatherDisplay:10.37,2013-08-29 00:01:00,
2013-08-28 14:06:00,84.2,64.7,29.93,SSW,210,4.3,4.6,52,0.00,BKN,,0.00,397.0,WeatherDisplay:10.37,2013-08-29 00:06:00,
2013-08-28 14:11:00,83.7,64.8,29.93,SSW,205,1.4,3.5,53,0.00,BKN,,0.00,394.0,WeatherDisplay:10.37,2013-08-29 00:11:00,
2013-08-28 14:16:00,83.3,64.4,29.93,SSW,196,2.7,5.8,53,0.00,BKN,,0.00,378.0,WeatherDisplay:10.37,2013-08-29 00:16:00,
2013-08-28 14:21:00,83.0,64.6,29.93,SW,217,2.8,4.6,54,0.00,BKN,,0.00,350.0,WeatherDisplay:10.37,2013-08-29 00:21:00,
2013-08-28 14:26:00,82.9,64.5,29.93,WSW,241,2.4,3.5,54,0.00,BKN,,0.00,425.0,WeatherDisplay:10.37,2013-08-29 00:26:00,
2013-08-28 14:31:00,82.9,65.1,29.92,South,190,1.9,3.5,55,0.00,BKN,,0.00,436.0,WeatherDisplay:10.37,2013-08-29 00:31:00,
2013-08-28 14:36:00,83.0,65.2,29.92,SSW,193,3.1,4.6,55,0.00,SCT,,0.00,483.0,WeatherDisplay:10.37,2013-08-29 00:36:00,
2013-08-28 14:41:00,83.1,65.8,29.92,SSW,194,0.0,0.0,56,0.00,BKN,,0.00,425.0,WeatherDisplay:10.37,2013-08-29 00:41:00,
2013-08-28 14:46:00,83.1,65.3,29.92,SSW,204,0.6,2.3,55,0.00,SCT,,0.00,431.0,WeatherDisplay:10.37,2013-08-29 00:46:00,
2013-08-28 14:51:00,82.5,66.7,29.92,NNE,26,2.6,3.5,59,0.00,CLR,,0.00,687.0,WeatherDisplay:10.37,2013-08-29 00:51:00,
2013-08-28 14:56:00,82.1,66.8,29.92,NNW,336,3.4,9.2,60,0.00,SCT,,0.00,443.0,WeatherDisplay:10.37,2013-08-29 00:56:00,
2013-08-28 15:01:00,81.7,67.9,29.92,NNE,22,5.5,10.4,63,0.00,SCT,,0.00,438.0,WeatherDisplay:10.37,2013-08-29 01:01:00,
2013-08-28 15:06:00,81.2,67.4,29.92,NE,53,5.5,10.4,63,0.00,SCT,,0.00,492.0,WeatherDisplay:10.37,2013-08-29 01:06:00,
2013-08-28 15:11:00,80.5,67.2,29.92,NNE,33,3.9,5.8,64,0.00,BKN,,0.00,294.0,WeatherDisplay:10.37,2013-08-29 01:11:00,
2013-08-28 15:16:00,79.9,67.5,29.92,NNE,32,3.6,4.6,66,0.00,BKN,,0.00,297.0,WeatherDisplay:10.37,2013-08-29 01:16:00,
2013-08-28 15:21:00,79.4,68.8,29.92,NE,47,2.7,4.6,70,0.00,BKN,,0.00,311.0,WeatherDisplay:10.37,2013-08-29 01:21:00,
2013-08-28 15:26:00,78.6,68.8,29.92,NNE,21,2.4,3.5,72,0.00,BKN,,0.00,292.0,WeatherDisplay:10.37,2013-08-29 01:26:00,
2013-08-28 15:31:00,78.0,69.0,29.92,North,10,2.9,4.6,74,0.00,OVC,,0.00,199.0,WeatherDisplay:10.37,2013-08-29 01:31:00,
2013-08-28 15:36:00,77.4,68.5,29.92,North,355,1.1,3.5,74,0.00,OVC,,0.00,158.0,WeatherDisplay:10.37,2013-08-29 01:36:00,
2013-08-28 15:41:00,76.8,68.3,29.92,North,350,1.8,3.5,75,0.00,OVC,,0.00,163.0,WeatherDisplay:10.37,2013-08-29 01:41:00,
2013-08-28 15:46:00,76.5,68.4,29.92,North,355,1.5,3.5,76,0.00,BKN,,0.00,214.0,WeatherDisplay:10.37,2013-08-29 01:46:00,
2013-08-28 15:51:00,76.6,69.2,29.92,North,360,0.9,3.5,78,0.00,BKN,,0.00,281.0,WeatherDisplay:10.37,2013-08-29 01:51:00,
2013-08-28 15:56:00,76.5,69.9,29.92,NNE,33,3.4,4.6,80,0.01,RA,,0.01,271.0,WeatherDisplay:10.37,2013-08-29 01:56:00,
2013-08-28 16:01:00,76.0,70.1,29.92,North,355,4.8,9.2,82,0.01,RA,,0.01,227.0,WeatherDisplay:10.37,2013-08-29 02:01:00,
2013-08-28 16:06:00,75.4,70.2,29.92,NE,54,3.9,5.8,84,0.01,BKN,,0.01,185.0,WeatherDisplay:10.37,2013-08-29 02:06:00,
2013-08-28 16:11:00,74.8,69.6,29.92,NE,50,1.7,3.5,84,0.02,RA,,0.02,149.0,WeatherDisplay:10.37,2013-08-29 02:11:00,
2013-08-28 16:16:00,74.5,69.7,29.92,NNE,14,0.4,1.2,85,0.03,RA,,0.03,130.0,WeatherDisplay:10.37,2013-08-29 02:16:00,
2013-08-28 16:21:00,74.1,69.3,29.92,NE,39,0.9,2.3,85,0.04,RA,,0.04,142.0,WeatherDisplay:10.37,2013-08-29 02:21:00,
2013-08-28 16:26:00,73.9,69.4,29.92,North,5,1.7,3.5,86,0.04,RA,,0.04,118.0,WeatherDisplay:10.37,2013-08-29 02:26:00,
2013-08-28 16:31:00,73.8,69.7,29.92,North,5,0.8,2.3,87,0.04,OVC,,0.04,109.0,WeatherDisplay:10.37,2013-08-29 02:31:00,
2013-08-28 16:36:00,73.6,69.2,29.92,North,5,1.0,2.3,86,0.04,OVC,,0.04,123.0,WeatherDisplay:10.37,2013-08-29 02:36:00,
2013-08-28 16:41:00,73.5,69.4,29.92,North,5,0.3,2.0,87,0.04,BKN,,0.04,162.0,WeatherDisplay:10.37,2013-08-29 02:41:00,
2013-08-28 16:46:00,73.6,69.5,29.92,NE,46,1.3,3.5,87,0.04,SCT,,0.04,207.0,WeatherDisplay:10.37,2013-08-29 02:46:00,
2013-08-28 16:51:00,73.8,69.7,29.92,NE,51,1.1,3.5,87,0.04,SCT,,0.04,195.0,WeatherDisplay:10.37,2013-08-29 02:51:00,
2013-08-28 16:56:00,74.0,69.9,29.92,NE,51,0.8,2.3,87,0.03,BKN,,0.04,148.0,WeatherDisplay:10.37,2013-08-29 02:56:00,
2013-08-28 17:01:00,74.2,70.1,29.92,ENE,60,0.1,1.2,87,0.03,BKN,,0.04,113.0,WeatherDisplay:10.37,2013-08-29 03:01:00,
2013-08-28 17:06:00,74.5,70.4,29.92,NE,42,1.6,3.5,87,0.03,CLR,,0.04,81.0,WeatherDisplay:10.37,2013-08-29 03:06:00,
2013-08-28 17:11:00,74.5,70.0,29.91,ENE,59,0.5,2.3,86,0.02,CLR,,0.04,44.0,WeatherDisplay:10.37,2013-08-29 03:11:00,
2013-08-28 17:16:00,74.6,70.1,29.92,East,93,2.0,3.5,86,0.01,,,0.04,23.0,WeatherDisplay:10.37,2013-08-29 03:16:00,
2013-08-28 17:21:00,74.5,70.0,29.92,East,84,3.3,6.9,86,0.00,,,0.04,11.0,WeatherDisplay:10.37,2013-08-29 03:21:00,
2013-08-28 17:26:00,74.2,69.7,29.92,NNE,16,4.6,10.4,86,0.00,,,0.04,7.0,WeatherDisplay:10.37,2013-08-29 03:26:00,
2013-08-28 17:31:00,73.8,69.3,29.92,North,5,2.5,3.5,86,0.00,,,0.04,16.0,WeatherDisplay:10.37,2013-08-29 03:31:00,
2013-08-28 17:36:00,73.4,69.3,29.92,NNW,330,3.6,8.1,87,0.00,,,0.04,32.0,WeatherDisplay:10.37,2013-08-29 03:36:00,
2013-08-28 17:41:00,72.8,68.4,29.92,NNE,15,2.9,5.8,86,0.00,,,0.04,51.0,WeatherDisplay:10.37,2013-08-29 03:41:00,
2013-08-28 17:46:00,72.5,68.1,29.92,NE,49,0.8,2.3,86,0.00,,,0.04,58.0,WeatherDisplay:10.37,2013-08-29 03:46:00,
2013-08-28 17:51:00,72.6,68.2,29.92,NE,44,1.9,3.5,86,0.00,BKN,,0.04,67.0,WeatherDisplay:10.37,2013-08-29 03:51:00,
2013-08-28 17:56:00,72.7,68.3,29.92,NE,45,2.1,3.5,86,0.00,,,0.04,44.0,WeatherDisplay:10.37,2013-08-29 03:56:00,
2013-08-28 18:01:00,72.8,68.0,29.92,NE,46,1.2,3.5,85,0.00,,,0.04,44.0,WeatherDisplay:10.37,2013-08-29 04:01:00,
2013-08-28 18:02:00,72.8,68.0,29.92,NE,47,1.1,3.5,85,0.00,BKN,,0.04,47.0,WeatherDisplay:10.37,2013-08-29 04:02:00,
2013-08-28 18:04:00,72.9,67.8,29.92,NE,46,1.9,3.5,84,0.00,BKN,,0.04,47.0,WeatherDisplay:10.37,2013-08-29 04:04:00,
2013-08-28 18:09:00,73.0,67.9,29.93,ENE,61,2.5,3.5,84,0.00,BKN,,0.04,46.0,WeatherDisplay:10.37,2013-08-29 04:09:00,
2013-08-28 18:14:00,73.3,68.2,29.93,NE,54,2.2,4.6,84,0.00,BKN,,0.04,35.0,WeatherDisplay:10.37,2013-08-29 04:14:00,
2013-08-28 18:19:00,73.3,68.2,29.93,ENE,65,2.0,3.5,84,0.00,BKN,,0.04,39.0,WeatherDisplay:10.37,2013-08-29 04:19:00,
2013-08-28 18:24:00,73.4,68.3,29.93,NE,51,1.2,3.5,84,0.00,BKN,,0.04,25.0,WeatherDisplay:10.37,2013-08-29 04:24:00,
2013-08-28 18:29:00,73.4,68.3,29.93,North,11,2.5,4.6,84,0.00,,,0.04,18.0,WeatherDisplay:10.37,2013-08-29 04:29:00,
2013-08-28 18:34:00,73.5,68.4,29.93,NNE,29,3.1,4.6,84,0.00,,,0.04,12.0,WeatherDisplay:10.37,2013-08-29 04:34:00,
2013-08-28 18:39:00,73.4,68.3,29.93,NNE,23,2.6,4.0,84,0.00,BKN,,0.04,12.0,WeatherDisplay:10.37,2013-08-29 04:39:00,
2013-08-28 18:44:00,73.2,67.7,29.93,ENE,67,1.0,4.6,83,0.00,BKN,,0.04,7.0,WeatherDisplay:10.37,2013-08-29 04:44:00,
2013-08-28 18:49:00,73.2,67.7,29.93,NE,51,1.6,3.5,83,0.00,SCT,,0.04,5.0,WeatherDisplay:10.37,2013-08-29 04:49:00,
2013-08-28 18:54:00,73.2,67.7,29.93,NNE,33,2.3,3.5,83,0.00,,,0.04,0.0,WeatherDisplay:10.37,2013-08-29 04:54:00,
2013-08-28 18:59:00,73.1,67.6,29.93,NNE,24,1.9,3.5,83,0.00,,,0.04,0.0,WeatherDisplay:10.37,2013-08-29 04:59:00,
2013-08-28 19:04:00,73.1,67.3,29.93,NNE,18,2.0,3.5,82,0.00,,,0.04,0.0,WeatherDisplay:10.37,2013-08-29 05:04:00,
2013-08-28 19:09:00,73.0,67.2,29.94,NNE,19,4.5,5.8,82,0.00,,,0.04,0.0,WeatherDisplay:10.37,2013-08-29 05:09:00,
2013-08-28 19:14:00,73.1,67.3,29.94,ENE,71,2.7,8.1,82,0.00,,,0.04,0.0,WeatherDisplay:10.37,2013-08-29 05:14:00,
2013-08-28 19:19:00,73.1,67.6,29.94,North,5,3.2,9.2,83,0.00,,,0.04,0.0,WeatherDisplay:10.37,2013-08-29 05:19:00,
2013-08-28 19:24:00,73.1,67.6,29.94,NNE,22,2.6,3.5,83,0.00,,,0.04,0.0,WeatherDisplay:10.37,2013-08-29 05:24:00,
2013-08-28 19:29:00,73.1,67.6,29.95,ENE,68,3.2,6.9,83,0.00,,,0.04,0.0,WeatherDisplay:10.37,2013-08-29 05:29:00,
2013-08-28 19:34:00,73.0,67.5,29.94,NE,35,4.1,8.1,83,0.00,,,0.04,0.0,WeatherDisplay:10.37,2013-08-29 05:34:00,
2013-08-28 19:39:00,72.8,67.3,29.94,ENE,60,3.4,9.2,83,0.00,,,0.04,0.0,WeatherDisplay:10.37,2013-08-29 05:39:00,
2013-08-28 19:44:00,72.8,67.3,29.94,North,9,5.3,9.2,83,0.00,,,0.04,0.0,WeatherDisplay:10.37,2013-08-29 05:44:00,
2013-08-28 19:49:00,72.8,67.3,29.95,NE,34,5.3,9.2,83,0.00,,,0.04,0.0,WeatherDisplay:10.37,2013-08-29 05:49:00,
2013-08-28 19:54:00,72.8,67.3,29.95,NNE,28,5.0,10.4,83,0.00,,,0.04,0.0,WeatherDisplay:10.37,2013-08-29 05:54:00,
2013-08-28 19:59:00,72.8,67.3,29.95,NE,39,6.5,11.5,83,0.00,,,0.04,0.0,WeatherDisplay:10.37,2013-08-29 05:59:00,
2013-08-28 20:04:00,72.8,67.3,29.95,NE,37,2.6,8.1,83,0.00,,,0.04,0.0,WeatherDisplay:10.37,2013-08-29 06:04:00,
2013-08-28 20:09:00,72.7,67.2,29.95,NE,45,4.0,5.8,83,0.00,,,0.04,0.0,WeatherDisplay:10.37,2013-08-29 06:09:00,
2013-08-28 20:14:00,72.7,67.2,29.95,ENE,61,4.6,6.9,83,0.00,,,0.04,0.0,WeatherDisplay:10.37,2013-08-29 06:14:00,
2013-08-28 20:19:00,72.7,67.2,29.95,ENE,64,4.7,9.2,83,0.00,,,0.04,0.0,WeatherDisplay:10.37,2013-08-29 06:19:00,
2013-08-28 20:24:00,72.6,67.1,29.95,ENE,59,4.5,9.2,83,0.00,,,0.04,0.0,WeatherDisplay:10.37,2013-08-29 06:24:00,
2013-08-28 20:29:00,72.6,67.1,29.95,North,5,5.3,10.4,83,0.00,,,0.04,0.0,WeatherDisplay:10.37,2013-08-29 06:29:00,
2013-08-28 20:34:00,72.6,67.1,29.95,NNE,21,4.5,6.9,83,0.00,,,0.04,0.0,WeatherDisplay:10.37,2013-08-29 06:34:00,
2013-08-28 20:39:00,72.6,67.1,29.95,NE,52,3.9,8.1,83,0.00,,,0.04,0.0,WeatherDisplay:10.37,2013-08-29 06:39:00,
2013-08-28 20:44:00,72.6,67.1,29.95,NE,36,4.5,9.2,83,0.00,,,0.04,0.0,WeatherDisplay:10.37,2013-08-29 06:44:00,
2013-08-28 20:49:00,72.6,67.1,29.95,NE,43,5.3,8.1,83,0.00,,,0.04,0.0,WeatherDisplay:10.37,2013-08-29 06:49:00,
2013-08-28 20:54:00,72.6,67.5,29.96,ENE,63,5.1,10.4,84,0.00,,,0.04,0.0,WeatherDisplay:10.37,2013-08-29 06:54:00,
2013-08-28 20:59:00,72.6,67.5,29.96,North,360,5.2,10.4,84,0.00,,,0.04,0.0,WeatherDisplay:10.37,2013-08-29 06:59:00,
2013-08-28 21:04:00,72.6,67.5,29.96,ENE,61,3.5,4.6,84,0.00,,,0.04,0.0,WeatherDisplay:10.37,2013-08-29 07:04:00,
2013-08-28 21:09:00,72.6,67.5,29.96,North,5,6.6,11.5,84,0.00,,,0.04,0.0,WeatherDisplay:10.37,2013-08-29 07:09:00,
2013-08-28 21:14:00,72.6,67.5,29.96,NNE,32,5.2,9.2,84,0.00,,,0.04,0.0,WeatherDisplay:10.37,2013-08-29 07:14:00,
2013-08-28 21:19:00,72.6,67.5,29.96,NNW,341,6.1,11.5,84,0.00,,,0.04,0.0,WeatherDisplay:10.37,2013-08-29 07:19:00,
2013-08-28 21:24:00,72.6,67.5,29.96,NE,52,3.4,5.0,84,0.00,,,0.04,0.0,WeatherDisplay:10.37,2013-08-29 07:24:00,
2013-08-28 21:29:00,72.6,67.5,29.96,North,9,3.0,5.8,84,0.00,,,0.04,0.0,WeatherDisplay:10.37,2013-08-29 07:29:00,
2013-08-28 21:34:00,72.6,67.5,29.96,North,5,3.1,5.0,84,0.00,,,0.04,0.0,WeatherDisplay:10.37,2013-08-29 07:34:00,
2013-08-28 21:39:00,72.6,67.5,29.96,North,5,4.2,8.1,84,0.00,,,0.04,0.0,WeatherDisplay:10.37,2013-08-29 07:39:00,
2013-08-28 21:44:00,72.6,67.5,29.96,North,351,4.7,9.2,84,0.00,,,0.04,0.0,WeatherDisplay:10.37,2013-08-29 07:44:00,
2013-08-28 21:49:00,72.5,67.4,29.96,NE,50,4.2,5.8,84,0.00,,,0.04,0.0,WeatherDisplay:10.37,2013-08-29 07:49:00,
2013-08-28 21:54:00,72.5,67.4,29.96,NNE,30,5.8,10.4,84,0.00,,,0.04,0.0,WeatherDisplay:10.37,2013-08-29 07:54:00,
2013-08-28 21:59:00,72.5,67.4,29.96,NE,48,4.5,10.4,84,0.00,,,0.04,0.0,WeatherDisplay:10.37,2013-08-29 07:59:00,
2013-08-28 22:04:00,72.5,67.4,29.95,NNE,19,2.6,3.5,84,0.00,,,0.04,0.0,WeatherDisplay:10.37,2013-08-29 08:04:00,
2013-08-28 22:09:00,72.5,67.4,29.96,ENE,60,4.1,5.8,84,0.00,,,0.04,0.0,WeatherDisplay:10.37,2013-08-29 08:09:00,
2013-08-28 22:14:00,72.5,67.7,29.95,NW,325,5.1,9.2,85,0.00,,,0.04,0.0,WeatherDisplay:10.37,2013-08-29 08:14:00,
2013-08-28 22:19:00,72.6,67.8,29.95,North,5,3.9,9.2,85,0.00,,,0.04,0.0,WeatherDisplay:10.37,2013-08-29 08:19:00,
2013-08-28 22:24:00,72.6,67.8,29.95,NE,49,6.2,11.5,85,0.00,,,0.04,0.0,WeatherDisplay:10.37,2013-08-29 08:24:00,
2013-08-28 22:29:00,72.5,67.7,29.95,NNW,339,5.2,9.0,85,0.00,,,0.04,0.0,WeatherDisplay:10.37,2013-08-29 08:29:00,
2013-08-28 22:34:00,72.4,67.6,29.95,NNE,15,6.4,11.5,85,0.00,,,0.04,0.0,WeatherDisplay:10.37,2013-08-29 08:34:00,
2013-08-28 22:39:00,72.5,67.4,29.95,North,349,4.2,10.4,84,0.00,,,0.04,0.0,WeatherDisplay:10.37,2013-08-29 08:39:00,
2013-08-28 22:44:00,72.5,67.4,29.95,NNE,20,4.8,10.4,84,0.00,,,0.04,0.0,WeatherDisplay:10.37,2013-08-29 08:44:00,
2013-08-28 22:49:00,72.5,67.4,29.95,NE,47,5.9,6.9,84,0.00,,,0.04,0.0,WeatherDisplay:10.37,2013-08-29 08:49:00,
2013-08-28 22:54:00,72.5,67.4,29.95,North,9,3.3,8.1,84,0.00,,,0.04,0.0,WeatherDisplay:10.37,2013-08-29 08:54:00,
2013-08-28 22:59:00,72.5,67.0,29.95,ENE,61,5.4,11.5,83,0.00,,,0.04,0.0,WeatherDisplay:10.37,2013-08-29 08:59:00,
2013-08-28 23:04:00,72.5,67.0,29.95,North,5,2.4,10.4,83,0.00,,,0.04,0.0,WeatherDisplay:10.37,2013-08-29 09:04:00,
2013-08-28 23:09:00,72.5,67.0,29.95,NNE,13,2.4,12.0,83,0.00,,,0.04,0.0,WeatherDisplay:10.37,2013-08-29 09:09:00,
2013-08-28 23:14:00,72.4,66.9,29.95,NE,53,2.2,8.1,83,0.00,,,0.04,0.0,WeatherDisplay:10.37,2013-08-29 09:14:00,
2013-08-28 23:19:00,72.4,67.3,29.95,NNW,345,3.4,6.9,84,0.00,,,0.04,0.0,WeatherDisplay:10.37,2013-08-29 09:19:00,
2013-08-28 23:24:00,72.3,67.2,29.95,NE,53,6.2,10.4,84,0.00,,,0.04,0.0,WeatherDisplay:10.37,2013-08-29 09:24:00,
2013-08-28 23:29:00,72.2,66.7,29.95,NNE,17,4.0,10.4,83,0.00,,,0.04,0.0,WeatherDisplay:10.37,2013-08-29 09:29:00,
2013-08-28 23:34:00,72.2,66.7,29.94,NE,56,3.2,4.6,83,0.00,,,0.04,0.0,WeatherDisplay:10.37,2013-08-29 09:34:00,
2013-08-28 23:39:00,72.2,66.7,29.95,NNE,33,2.0,8.1,83,0.00,,,0.04,0.0,WeatherDisplay:10.37,2013-08-29 09:39:00,
2013-08-28 23:44:00,72.1,66.6,29.94,North,351,4.9,8.1,83,0.00,,,0.04,0.0,WeatherDisplay:10.37,2013-08-29 09:44:00,
2013-08-28 23:49:00,72.0,66.6,29.94,NNE,32,3.3,5.8,83,0.00,,,0.04,0.0,WeatherDisplay:10.37,2013-08-29 09:49:00,
2013-08-28 23:54:00,71.9,66.5,29.94,NNE,33,2.0,3.5,83,0.00,,,0.04,0.0,WeatherDisplay:10.37,2013-08-29 09:54:00,
2013-08-28 23:59:00,71.9,66.5,29.94,NNE,15,2.5,3.5,83,0.00,,,0.04,0.0,WeatherDisplay:10.37,2013-08-29 09:59:00,